@ivo said in VMC erroneous:

Yep I know. We will fix that

Another weird one today: "110620Z 20009KT 6000 -RA SCT015 BKN030 06/05 Q1013 NOSIG" as "MVFR"

Except for the time of day, it's simple VFR since we have 6 km vis, 3000 ft ceiling.

It's limit night VFR ;-) 31 minutes before sunrise. Actually I'm curious how you calculate that for sunset? It's obviously not done with the usual 30' approximation, is that the 6° centre-of-the-Sun rule?

Sunrise: 7:51, sunset: 17:03
Dusk (end of VFR day): 17:39